sensor_id;sensor_type;location;lat;lon;timestamp;pressure;altitude;pressure_sealevel;temperature
76381;BMP280;65202;52.520;10.528;2023-06-14T00:01:36;101116.13;;;18.30
76381;BMP280;65202;52.520;10.528;2023-06-14T00:04:05;101116.38;;;18.02
76381;BMP280;65202;52.520;10.528;2023-06-14T00:06:33;101114.53;;;17.95
76381;BMP280;65202;52.520;10.528;2023-06-14T00:09:00;101118.28;;;17.72
76381;BMP280;65202;52.520;10.528;2023-06-14T00:11:28;101115.22;;;17.88
76381;BMP280;65202;52.520;10.528;2023-06-14T00:13:57;101117.94;;;18.36
76381;BMP280;65202;52.520;10.528;2023-06-14T00:16:24;101110.81;;;18.18
76381;BMP280;65202;52.520;10.528;2023-06-14T00:18:52;101109.91;;;18.16
76381;BMP280;65202;52.520;10.528;2023-06-14T00:21:19;101111.25;;;17.99
76381;BMP280;65202;52.520;10.528;2023-06-14T00:23:47;101122.41;;;17.67
76381;BMP280;65202;52.520;10.528;2023-06-14T00:26:14;101123.59;;;17.84
76381;BMP280;65202;52.520;10.528;2023-06-14T00:28:41;101124.81;;;18.01
76381;BMP280;65202;52.520;10.528;2023-06-14T00:31:09;101128.06;;;17.56
76381;BMP280;65202;52.520;10.528;2023-06-14T00:33:36;101126.22;;;17.88
76381;BMP280;65202;52.520;10.528;2023-06-14T00:36:04;101126.56;;;17.65
76381;BMP280;65202;52.520;10.528;2023-06-14T00:38:31;101127.16;;;17.92
76381;BMP280;65202;52.520;10.528;2023-06-14T00:40:58;101127.38;;;18.04
76381;BMP280;65202;52.520;10.528;2023-06-14T00:43:26;101130.66;;;17.59
76381;BMP280;65202;52.520;10.528;2023-06-14T00:45:53;101133.63;;;17.41
76381;BMP280;65202;52.520;10.528;2023-06-14T00:48:20;101132.38;;;17.60
76381;BMP280;65202;52.520;10.528;2023-06-14T00:50:50;101137.63;;;17.68
76381;BMP280;65202;52.520;10.528;2023-06-14T00:53:20;101128.91;;;17.56
76381;BMP280;65202;52.520;10.528;2023-06-14T00:55:49;101137.00;;;17.78
76381;BMP280;65202;52.520;10.528;2023-06-14T00:58:17;101132.56;;;17.68
76381;BMP280;65202;52.520;10.528;2023-06-14T01:00:44;101134.38;;;17.37
76381;BMP280;65202;52.520;10.528;2023-06-14T01:03:12;101141.16;;;17.04
76381;BMP280;65202;52.520;10.528;2023-06-14T01:05:41;101146.00;;;17.29
76381;BMP280;65202;52.520;10.528;2023-06-14T01:08:47;101143.19;;;17.54
76381;BMP280;65202;52.520;10.528;2023-06-14T01:11:23;101139.50;;;17.06
76381;BMP280;65202;52.520;10.528;2023-06-14T01:13:59;101145.06;;;16.60
76381;BMP280;65202;52.520;10.528;2023-06-14T01:16:30;101140.03;;;17.27
76381;BMP280;65202;52.520;10.528;2023-06-14T01:18:59;101152.91;;;17.02
76381;BMP280;65202;52.520;10.528;2023-06-14T01:21:26;101149.28;;;16.92
76381;BMP280;65202;52.520;10.528;2023-06-14T01:23:55;101151.41;;;16.46
76381;BMP280;65202;52.520;10.528;2023-06-14T01:26:23;101148.81;;;16.43
76381;BMP280;65202;52.520;10.528;2023-06-14T01:28:50;101143.00;;;16.45
76381;BMP280;65202;52.520;10.528;2023-06-14T01:31:20;101156.72;;;16.55
76381;BMP280;65202;52.520;10.528;2023-06-14T01:33:50;101154.97;;;16.23
76381;BMP280;65202;52.520;10.528;2023-06-14T01:36:19;101157.31;;;16.46
76381;BMP280;65202;52.520;10.528;2023-06-14T01:38:48;101152.78;;;16.35
76381;BMP280;65202;52.520;10.528;2023-06-14T01:41:18;101161.03;;;16.28
76381;BMP280;65202;52.520;10.528;2023-06-14T01:43:48;101152.41;;;16.22
76381;BMP280;65202;52.520;10.528;2023-06-14T01:46:16;101150.22;;;16.34
76381;BMP280;65202;52.520;10.528;2023-06-14T01:48:44;101155.97;;;16.28
76381;BMP280;65202;52.520;10.528;2023-06-14T01:51:12;101154.06;;;16.21
76381;BMP280;65202;52.520;10.528;2023-06-14T01:53:39;101147.69;;;16.34
76381;BMP280;65202;52.520;10.528;2023-06-14T01:56:07;101159.84;;;16.17
76381;BMP280;65202;52.520;10.528;2023-06-14T01:58:34;101156.22;;;16.08
76381;BMP280;65202;52.520;10.528;2023-06-14T02:01:02;101153.16;;;15.90
76381;BMP280;65202;52.520;10.528;2023-06-14T02:03:30;101160.72;;;15.90
76381;BMP280;65202;52.520;10.528;2023-06-14T02:05:57;101162.81;;;15.49
76381;BMP280;65202;52.520;10.528;2023-06-14T02:08:25;101157.78;;;15.49
76381;BMP280;65202;52.520;10.528;2023-06-14T02:10:52;101156.50;;;15.63
76381;BMP280;65202;52.520;10.528;2023-06-14T02:13:19;101151.47;;;15.63
76381;BMP280;65202;52.520;10.528;2023-06-14T02:15:46;101156.22;;;15.80
76381;BMP280;65202;52.520;10.528;2023-06-14T02:18:18;101162.94;;;15.52
76381;BMP280;65202;52.520;10.528;2023-06-14T02:20:45;101149.09;;;15.67
76381;BMP280;65202;52.520;10.528;2023-06-14T02:23:12;101153.84;;;15.57
76381;BMP280;65202;52.520;10.528;2023-06-14T02:25:40;101150.25;;;15.77
76381;BMP280;65202;52.520;10.528;2023-06-14T02:28:07;101156.59;;;15.38
76381;BMP280;65202;52.520;10.528;2023-06-14T02:30:35;101170.31;;;15.46
76381;BMP280;65202;52.520;10.528;2023-06-14T02:33:02;101158.47;;;15.71
76381;BMP280;65202;52.520;10.528;2023-06-14T02:35:30;101173.25;;;15.08
76381;BMP280;65202;52.520;10.528;2023-06-14T02:37:57;101176.34;;;14.76
76381;BMP280;65202;52.520;10.528;2023-06-14T02:40:25;101171.50;;;14.57
76381;BMP280;65202;52.520;10.528;2023-06-14T02:42:52;101175.34;;;14.71
76381;BMP280;65202;52.520;10.528;2023-06-14T02:45:19;101174.72;;;14.77
76381;BMP280;65202;52.520;10.528;2023-06-14T02:47:48;101178.78;;;14.98
76381;BMP280;65202;52.520;10.528;2023-06-14T02:50:15;101178.44;;;15.12
76381;BMP280;65202;52.520;10.528;2023-06-14T02:52:44;101182.22;;;14.75
76381;BMP280;65202;52.520;10.528;2023-06-14T02:55:12;101179.28;;;14.88
76381;BMP280;65202;52.520;10.528;2023-06-14T02:57:39;101181.81;;;14.88
76381;BMP280;65202;52.520;10.528;2023-06-14T03:00:07;101183.84;;;14.98
76381;BMP280;65202;52.520;10.528;2023-06-14T03:02:41;101180.28;;;14.68
76381;BMP280;65202;52.520;10.528;2023-06-14T03:05:09;101186.28;;;14.95
76381;BMP280;65202;52.520;10.528;2023-06-14T03:07:37;101195.09;;;14.83
76381;BMP280;65202;52.520;10.528;2023-06-14T03:10:08;101191.94;;;14.90
76381;BMP280;65202;52.520;10.528;2023-06-14T03:12:40;101201.84;;;14.60
76381;BMP280;65202;52.520;10.528;2023-06-14T03:15:08;101200.97;;;14.83
76381;BMP280;65202;52.520;10.528;2023-06-14T03:17:36;101203.75;;;14.21
76381;BMP280;65202;52.520;10.528;2023-06-14T03:20:06;101211.03;;;14.35
76381;BMP280;65202;52.520;10.528;2023-06-14T03:22:35;101215.78;;;14.28
76381;BMP280;65202;52.520;10.528;2023-06-14T03:25:02;101211.84;;;14.82
76381;BMP280;65202;52.520;10.528;2023-06-14T03:27:31;101211.88;;;15.07
76381;BMP280;65202;52.520;10.528;2023-06-14T03:29:58;101217.28;;;14.69
76381;BMP280;65202;52.520;10.528;2023-06-14T03:32:25;101221.66;;;14.98
76381;BMP280;65202;52.520;10.528;2023-06-14T03:34:52;101222.41;;;14.72
76381;BMP280;65202;52.520;10.528;2023-06-14T03:37:20;101228.78;;;14.40
76381;BMP280;65202;52.520;10.528;2023-06-14T03:39:48;101237.94;;;14.59
76381;BMP280;65202;52.520;10.528;2023-06-14T03:42:15;101232.94;;;14.84
76381;BMP280;65202;52.520;10.528;2023-06-14T03:44:43;101238.63;;;14.55
76381;BMP280;65202;52.520;10.528;2023-06-14T03:47:11;101245.97;;;14.49
76381;BMP280;65202;52.520;10.528;2023-06-14T03:49:38;101246.53;;;14.43
76381;BMP280;65202;52.520;10.528;2023-06-14T03:52:06;101255.97;;;14.04
76381;BMP280;65202;52.520;10.528;2023-06-14T03:54:33;101250.78;;;14.44
76381;BMP280;65202;52.520;10.528;2023-06-14T03:57:03;101252.16;;;14.36
76381;BMP280;65202;52.520;10.528;2023-06-14T03:59:32;101260.00;;;14.43
76381;BMP280;65202;52.520;10.528;2023-06-14T04:01:59;101256.75;;;14.46
76381;BMP280;65202;52.520;10.528;2023-06-14T04:04:26;101263.16;;;14.83
76381;BMP280;65202;52.520;10.528;2023-06-14T04:06:56;101259.44;;;14.73
76381;BMP280;65202;52.520;10.528;2023-06-14T04:09:25;101262.44;;;14.87
76381;BMP280;65202;52.520;10.528;2023-06-14T04:11:52;101264.25;;;14.67
76381;BMP280;65202;52.520;10.528;2023-06-14T04:14:20;101272.63;;;14.66
76381;BMP280;65202;52.520;10.528;2023-06-14T04:16:48;101264.25;;;14.67
76381;BMP280;65202;52.520;10.528;2023-06-14T04:19:16;101269.41;;;14.70
76381;BMP280;65202;52.520;10.528;2023-06-14T04:21:43;101265.31;;;14.74
76381;BMP280;65202;52.520;10.528;2023-06-14T04:24:11;101255.19;;;15.44
76381;BMP280;65202;52.520;10.528;2023-06-14T04:26:44;101260.09;;;15.39
76381;BMP280;65202;52.520;10.528;2023-06-14T04:29:12;101265.53;;;15.26
76381;BMP280;65202;52.520;10.528;2023-06-14T04:31:43;101258.16;;;15.32
76381;BMP280;65202;52.520;10.528;2023-06-14T04:34:12;101257.88;;;15.23
76381;BMP280;65202;52.520;10.528;2023-06-14T04:36:45;101263.59;;;15.69
76381;BMP280;65202;52.520;10.528;2023-06-14T04:39:20;101273.59;;;15.66
76381;BMP280;65202;52.520;10.528;2023-06-14T04:41:48;101269.38;;;15.40
76381;BMP280;65202;52.520;10.528;2023-06-14T04:44:19;101272.16;;;15.48
76381;BMP280;65202;52.520;10.528;2023-06-14T04:46:47;101274.84;;;15.29
76381;BMP280;65202;52.520;10.528;2023-06-14T04:49:15;101272.41;;;15.30
76381;BMP280;65202;52.520;10.528;2023-06-14T04:51:43;101277.31;;;15.77
76381;BMP280;65202;52.520;10.528;2023-06-14T04:54:11;101267.00;;;15.97
76381;BMP280;65202;52.520;10.528;2023-06-14T04:56:42;101269.94;;;15.83
76381;BMP280;65202;52.520;10.528;2023-06-14T04:59:09;101264.94;;;16.12
76381;BMP280;65202;52.520;10.528;2023-06-14T05:01:38;101260.03;;;16.17
76381;BMP280;65202;52.520;10.528;2023-06-14T05:04:06;101270.41;;;15.98
76381;BMP280;65202;52.520;10.528;2023-06-14T05:06:33;101272.34;;;16.06
76381;BMP280;65202;52.520;10.528;2023-06-14T05:09:00;101271.44;;;16.31
76381;BMP280;65202;52.520;10.528;2023-06-14T05:11:27;101275.19;;;16.43
76381;BMP280;65202;52.520;10.528;2023-06-14T05:13:55;101272.41;;;16.34
76381;BMP280;65202;52.520;10.528;2023-06-14T05:16:22;101271.66;;;16.67
76381;BMP280;65202;52.520;10.528;2023-06-14T05:18:50;101278.06;;;16.27
76381;BMP280;65202;52.520;10.528;2023-06-14T05:21:17;101276.84;;;16.72
76381;BMP280;65202;52.520;10.528;2023-06-14T05:23:45;101278.28;;;16.64
76381;BMP280;65202;52.520;10.528;2023-06-14T05:26:13;101275.88;;;16.67
76381;BMP280;65202;52.520;10.528;2023-06-14T05:28:40;101275.75;;;16.64
76381;BMP280;65202;52.520;10.528;2023-06-14T05:31:07;101291.63;;;16.29
76381;BMP280;65202;52.520;10.528;2023-06-14T05:33:35;101285.28;;;16.43
76381;BMP280;65202;52.520;10.528;2023-06-14T05:36:02;101277.00;;;16.48
76381;BMP280;65202;52.520;10.528;2023-06-14T05:38:31;101290.28;;;16.41
76381;BMP280;65202;52.520;10.528;2023-06-14T05:40:58;101284.91;;;16.31
76381;BMP280;65202;52.520;10.528;2023-06-14T05:43:26;101281.59;;;16.61
76381;BMP280;65202;52.520;10.528;2023-06-14T05:45:53;101284.78;;;16.85
76381;BMP280;65202;52.520;10.528;2023-06-14T05:48:20;101286.56;;;16.88
76381;BMP280;65202;52.520;10.528;2023-06-14T05:50:48;101288.53;;;16.99
76381;BMP280;65202;52.520;10.528;2023-06-14T05:53:15;101300.41;;;17.02
76381;BMP280;65202;52.520;10.528;2023-06-14T05:55:42;101295.38;;;17.02
76381;BMP280;65202;52.520;10.528;2023-06-14T05:58:09;101292.25;;;17.11
76381;BMP280;65202;52.520;10.528;2023-06-14T06:00:37;101298.25;;;17.15
76381;BMP280;65202;52.520;10.528;2023-06-14T06:03:04;101310.53;;;17.02
76381;BMP280;65202;52.520;10.528;2023-06-14T06:05:35;101300.19;;;17.23
76381;BMP280;65202;52.520;10.528;2023-06-14T06:08:02;101305.34;;;17.26
76381;BMP280;65202;52.520;10.528;2023-06-14T06:10:29;101305.75;;;17.10
76381;BMP280;65202;52.520;10.528;2023-06-14T06:12:56;101310.81;;;17.10
76381;BMP280;65202;52.520;10.528;2023-06-14T06:15:24;101313.03;;;17.29
76381;BMP280;65202;52.520;10.528;2023-06-14T06:17:51;101305.44;;;17.29
76381;BMP280;65202;52.520;10.528;2023-06-14T06:20:23;101313.03;;;17.29
76381;BMP280;65202;52.520;10.528;2023-06-14T06:22:59;101316.06;;;17.49
76381;BMP280;65202;52.520;10.528;2023-06-14T06:25:27;101309.81;;;17.68
76381;BMP280;65202;52.520;10.528;2023-06-14T06:27:55;101308.44;;;17.81
76381;BMP280;65202;52.520;10.528;2023-06-14T06:30:25;101310.25;;;17.53
76381;BMP280;65202;52.520;10.528;2023-06-14T06:32:53;101320.25;;;17.47
76381;BMP280;65202;52.520;10.528;2023-06-14T06:35:20;101325.16;;;17.41
76381;BMP280;65202;52.520;10.528;2023-06-14T06:37:47;101319.16;;;17.71
76381;BMP280;65202;52.520;10.528;2023-06-14T06:40:15;101316.88;;;17.81
76381;BMP280;65202;52.520;10.528;2023-06-14T06:42:42;101314.72;;;17.96
76381;BMP280;65202;52.520;10.528;2023-06-14T06:45:09;101320.16;;;18.13
76381;BMP280;65202;52.520;10.528;2023-06-14T06:47:37;101322.63;;;18.10
76381;BMP280;65202;52.520;10.528;2023-06-14T06:50:04;101318.22;;;18.03
76381;BMP280;65202;52.520;10.528;2023-06-14T06:52:34;101333.63;;;17.76
76381;BMP280;65202;52.520;10.528;2023-06-14T06:55:02;101338.06;;;17.85
76381;BMP280;65202;52.520;10.528;2023-06-14T06:57:30;101333.91;;;17.87
76381;BMP280;65202;52.520;10.528;2023-06-14T06:59:57;101332.16;;;18.18
76381;BMP280;65202;52.520;10.528;2023-06-14T07:02:24;101339.56;;;18.11
76381;BMP280;65202;52.520;10.528;2023-06-14T07:04:51;101333.81;;;18.18
76381;BMP280;65202;52.520;10.528;2023-06-14T07:07:19;101328.38;;;18.03
76381;BMP280;65202;52.520;10.528;2023-06-14T07:09:46;101337.53;;;17.98
76381;BMP280;65202;52.520;10.528;2023-06-14T07:12:14;101337.41;;;18.26
76381;BMP280;65202;52.520;10.528;2023-06-14T07:14:41;101334.94;;;18.29
76381;BMP280;65202;52.520;10.528;2023-06-14T07:17:08;101336.28;;;18.16
76381;BMP280;65202;52.520;10.528;2023-06-14T07:19:35;101339.38;;;18.38
76381;BMP280;65202;52.520;10.528;2023-06-14T07:22:03;101333.44;;;18.76
76381;BMP280;65202;52.520;10.528;2023-06-14T07:24:30;101344.34;;;18.35
76381;BMP280;65202;52.520;10.528;2023-06-14T07:26:57;101355.63;;;18.13
76381;BMP280;65202;52.520;10.528;2023-06-14T07:29:25;101339.88;;;18.61
76381;BMP280;65202;52.520;10.528;2023-06-14T07:31:53;101341.66;;;18.66
76381;BMP280;65202;52.520;10.528;2023-06-14T07:34:20;101342.41;;;19.02
76381;BMP280;65202;52.520;10.528;2023-06-14T07:36:47;101334.06;;;19.52
76381;BMP280;65202;52.520;10.528;2023-06-14T07:39:14;101324.38;;;20.33
76381;BMP280;65202;52.520;10.528;2023-06-14T07:41:42;101322.44;;;21.53
76381;BMP280;65202;52.520;10.528;2023-06-14T07:44:09;101327.25;;;21.26
76381;BMP280;65202;52.520;10.528;2023-06-14T07:46:37;101327.41;;;21.44
76381;BMP280;65202;52.520;10.528;2023-06-14T07:49:05;101312.16;;;22.66
76381;BMP280;65202;52.520;10.528;2023-06-14T07:51:33;101308.00;;;22.87
76381;BMP280;65202;52.520;10.528;2023-06-14T07:54:00;101305.63;;;23.85
76381;BMP280;65202;52.520;10.528;2023-06-14T07:56:29;101303.06;;;23.85
76381;BMP280;65202;52.520;10.528;2023-06-14T07:58:56;101315.78;;;23.44
76381;BMP280;65202;52.520;10.528;2023-06-14T08:01:23;101296.59;;;25.28
76381;BMP280;65202;52.520;10.528;2023-06-14T08:03:52;101302.69;;;25.07
76381;BMP280;65202;52.520;10.528;2023-06-14T08:06:19;101300.13;;;25.09
76381;BMP280;65202;52.520;10.528;2023-06-14T08:08:47;101298.56;;;24.77
76381;BMP280;65202;52.520;10.528;2023-06-14T08:11:14;101290.22;;;24.19
76381;BMP280;65202;52.520;10.528;2023-06-14T08:13:42;101283.41;;;25.77
76381;BMP280;65202;52.520;10.528;2023-06-14T08:16:09;101283.22;;;25.95
76381;BMP280;65202;52.520;10.528;2023-06-14T08:18:37;101285.16;;;25.66
76381;BMP280;65202;52.520;10.528;2023-06-14T08:21:04;101287.84;;;25.51
76381;BMP280;65202;52.520;10.528;2023-06-14T08:23:31;101286.66;;;24.70
76381;BMP280;65202;52.520;10.528;2023-06-14T08:25:59;101294.25;;;24.84
76381;BMP280;65202;52.520;10.528;2023-06-14T08:28:28;101295.94;;;24.88
76381;BMP280;65202;52.520;10.528;2023-06-14T08:30:55;101287.25;;;26.18
76381;BMP280;65202;52.520;10.528;2023-06-14T08:33:22;101284.03;;;26.00
76381;BMP280;65202;52.520;10.528;2023-06-14T08:35:50;101295.38;;;25.78
76381;BMP280;65202;52.520;10.528;2023-06-14T08:38:17;101283.34;;;25.80
76381;BMP280;65202;52.520;10.528;2023-06-14T08:40:48;101303.44;;;25.21
76381;BMP280;65202;52.520;10.528;2023-06-14T08:43:18;101286.78;;;25.79
76381;BMP280;65202;52.520;10.528;2023-06-14T08:45:46;101295.38;;;25.69
76381;BMP280;65202;52.520;10.528;2023-06-14T08:48:18;101291.97;;;25.68
76381;BMP280;65202;52.520;10.528;2023-06-14T08:50:47;101300.22;;;26.05
76381;BMP280;65202;52.520;10.528;2023-06-14T08:53:17;101294.03;;;26.97
76381;BMP280;65202;52.520;10.528;2023-06-14T08:55:46;101300.97;;;25.03
76381;BMP280;65202;52.520;10.528;2023-06-14T08:58:14;101290.88;;;25.99
76381;BMP280;65202;52.520;10.528;2023-06-14T09:00:42;101290.50;;;27.05
76381;BMP280;65202;52.520;10.528;2023-06-14T09:03:09;101292.88;;;26.51
76381;BMP280;65202;52.520;10.528;2023-06-14T09:05:40;101289.84;;;27.44
76381;BMP280;65202;52.520;10.528;2023-06-14T09:08:07;101288.69;;;26.44
76381;BMP280;65202;52.520;10.528;2023-06-14T09:10:35;101280.22;;;27.56
76381;BMP280;65202;52.520;10.528;2023-06-14T09:13:05;101279.75;;;27.85
76381;BMP280;65202;52.520;10.528;2023-06-14T09:15:33;101284.53;;;27.57
76381;BMP280;65202;52.520;10.528;2023-06-14T09:18:02;101294.63;;;27.14
76381;BMP280;65202;52.520;10.528;2023-06-14T09:20:30;101269.22;;;27.98
76381;BMP280;65202;52.520;10.528;2023-06-14T09:22:58;101281.22;;;26.91
76381;BMP280;65202;52.520;10.528;2023-06-14T09:25:27;101282.94;;;26.89
76381;BMP280;65202;52.520;10.528;2023-06-14T09:28:07;101278.75;;;27.42
76381;BMP280;65202;52.520;10.528;2023-06-14T09:30:39;101281.47;;;26.73
76381;BMP280;65202;52.520;10.528;2023-06-14T09:33:07;101283.88;;;26.85
76381;BMP280;65202;52.520;10.528;2023-06-14T09:35:34;101274.56;;;27.37
76381;BMP280;65202;52.520;10.528;2023-06-14T09:38:03;101278.06;;;27.84
76381;BMP280;65202;52.520;10.528;2023-06-14T09:40:33;101283.91;;;28.38
76381;BMP280;65202;52.520;10.528;2023-06-14T09:43:05;101277.94;;;27.38
76381;BMP280;65202;52.520;10.528;2023-06-14T09:45:38;101270.69;;;27.64
76381;BMP280;65202;52.520;10.528;2023-06-14T09:48:07;101268.09;;;27.66
76381;BMP280;65202;52.520;10.528;2023-06-14T09:50:35;101277.00;;;26.87
76381;BMP280;65202;52.520;10.528;2023-06-14T09:53:06;101260.66;;;27.46
76381;BMP280;65202;52.520;10.528;2023-06-14T09:55:36;101266.34;;;26.52
76381;BMP280;65202;52.520;10.528;2023-06-14T09:58:06;101290.09;;;25.93
76381;BMP280;65202;52.520;10.528;2023-06-14T10:00:36;101279.97;;;25.76
76381;BMP280;65202;52.520;10.528;2023-06-14T10:03:14;101277.84;;;25.20
76381;BMP280;65202;52.520;10.528;2023-06-14T10:05:50;101283.22;;;24.72
76381;BMP280;65202;52.520;10.528;2023-06-14T10:08:19;101278.09;;;24.72
76381;BMP280;65202;52.520;10.528;2023-06-14T10:10:55;101285.09;;;24.21
76381;BMP280;65202;52.520;10.528;2023-06-14T10:13:22;101291.09;;;23.62
76381;BMP280;65202;52.520;10.528;2023-06-14T10:15:58;101272.38;;;23.82
76381;BMP280;65202;52.520;10.528;2023-06-14T10:22:00;101270.66;;;23.96
76381;BMP280;65202;52.520;10.528;2023-06-14T10:24:38;101284.28;;;23.33
76381;BMP280;65202;52.520;10.528;2023-06-14T10:27:09;101275.75;;;23.63
76381;BMP280;65202;52.520;10.528;2023-06-14T10:32:25;101269.81;;;23.49
76381;BMP280;65202;52.520;10.528;2023-06-14T10:34:57;101275.78;;;23.69
76381;BMP280;65202;52.520;10.528;2023-06-14T10:37:26;101275.78;;;23.62
76381;BMP280;65202;52.520;10.528;2023-06-14T10:39:53;101267.16;;;24.42
76381;BMP280;65202;52.520;10.528;2023-06-14T10:42:21;101260.97;;;24.78
76381;BMP280;65202;52.520;10.528;2023-06-14T10:44:54;101255.25;;;24.11
76381;BMP280;65202;52.520;10.528;2023-06-14T10:47:32;101262.13;;;23.88
76381;BMP280;65202;52.520;10.528;2023-06-14T10:50:03;101254.28;;;24.52
76381;BMP280;65202;52.520;10.528;2023-06-14T10:52:35;101256.91;;;24.42
76381;BMP280;65202;52.520;10.528;2023-06-14T10:55:07;101257.88;;;23.98
76381;BMP280;65202;52.520;10.528;2023-06-14T11:00:28;101254.41;;;24.22
76381;BMP280;65202;52.520;10.528;2023-06-14T11:11:24;101257.00;;;24.08
76381;BMP280;65202;52.520;10.528;2023-06-14T11:14:00;101246.28;;;25.13
76381;BMP280;65202;52.520;10.528;2023-06-14T11:16:29;101245.47;;;25.07
76381;BMP280;65202;52.520;10.528;2023-06-14T11:19:00;101244.38;;;25.39
76381;BMP280;65202;52.520;10.528;2023-06-14T11:21:32;101246.84;;;23.76
76381;BMP280;65202;52.520;10.528;2023-06-14T11:24:00;101246.72;;;24.12
76381;BMP280;65202;52.520;10.528;2023-06-14T11:26:31;101244.19;;;24.11
76381;BMP280;65202;52.520;10.528;2023-06-14T11:29:01;101238.22;;;24.01
76381;BMP280;65202;52.520;10.528;2023-06-14T11:31:29;101235.56;;;24.32
76381;BMP280;65202;52.520;10.528;2023-06-14T11:33:58;101230.97;;;25.06
76381;BMP280;65202;52.520;10.528;2023-06-14T11:36:28;101232.53;;;25.23
76381;BMP280;65202;52.520;10.528;2023-06-14T11:39:05;101229.28;;;24.97
76381;BMP280;65202;52.520;10.528;2023-06-14T11:41:44;101232.75;;;24.90
76381;BMP280;65202;52.520;10.528;2023-06-14T11:44:12;101224.78;;;25.35
76381;BMP280;65202;52.520;10.528;2023-06-14T11:46:39;101209.84;;;25.77
76381;BMP280;65202;52.520;10.528;2023-06-14T11:49:07;101222.50;;;25.95
76381;BMP280;65202;52.520;10.528;2023-06-14T11:51:36;101207.81;;;25.19
76381;BMP280;65202;52.520;10.528;2023-06-14T11:54:05;101210.53;;;24.91
76381;BMP280;65202;52.520;10.528;2023-06-14T11:56:33;101206.28;;;24.93
76381;BMP280;65202;52.520;10.528;2023-06-14T11:59:02;101212.41;;;24.68
76381;BMP280;65202;52.520;10.528;2023-06-14T12:01:36;101202.84;;;24.95
76381;BMP280;65202;52.520;10.528;2023-06-14T12:04:05;101205.59;;;24.64
76381;BMP280;65202;52.520;10.528;2023-06-14T12:06:33;101197.22;;;25.55
76381;BMP280;65202;52.520;10.528;2023-06-14T12:09:04;101190.69;;;26.09
76381;BMP280;65202;52.520;10.528;2023-06-14T12:11:35;101187.16;;;25.36
76381;BMP280;65202;52.520;10.528;2023-06-14T12:14:07;101199.59;;;24.70
76381;BMP280;65202;52.520;10.528;2023-06-14T12:16:38;101198.06;;;24.33
76381;BMP280;65202;52.520;10.528;2023-06-14T12:19:17;101198.03;;;24.36
76381;BMP280;65202;52.520;10.528;2023-06-14T12:21:47;101202.44;;;24.04
76381;BMP280;65202;52.520;10.528;2023-06-14T12:24:16;101198.84;;;24.51
76381;BMP280;65202;52.520;10.528;2023-06-14T12:26:43;101200.59;;;24.36
76381;BMP280;65202;52.520;10.528;2023-06-14T12:29:12;101198.19;;;23.97
76381;BMP280;65202;52.520;10.528;2023-06-14T12:31:40;101201.44;;;24.41
76381;BMP280;65202;52.520;10.528;2023-06-14T12:34:08;101199.81;;;24.19
76381;BMP280;65202;52.520;10.528;2023-06-14T12:36:35;101203.00;;;24.70
76381;BMP280;65202;52.520;10.528;2023-06-14T12:39:08;101191.44;;;25.34
76381;BMP280;65202;52.520;10.528;2023-06-14T12:41:36;101186.66;;;25.89
76381;BMP280;65202;52.520;10.528;2023-06-14T12:44:04;101179.41;;;26.21
76381;BMP280;65202;52.520;10.528;2023-06-14T12:46:32;101180.19;;;25.51
76381;BMP280;65202;52.520;10.528;2023-06-14T12:49:00;101184.84;;;25.04
76381;BMP280;65202;52.520;10.528;2023-06-14T12:51:28;101185.03;;;24.77
76381;BMP280;65202;52.520;10.528;2023-06-14T12:53:55;101192.78;;;24.67
76381;BMP280;65202;52.520;10.528;2023-06-14T12:56:22;101187.00;;;24.28
76381;BMP280;65202;52.520;10.528;2023-06-14T12:58:51;101198.72;;;24.71
76381;BMP280;65202;52.520;10.528;2023-06-14T13:01:18;101193.75;;;24.42
76381;BMP280;65202;52.520;10.528;2023-06-14T13:03:47;101187.75;;;24.54
76381;BMP280;65202;52.520;10.528;2023-06-14T13:06:14;101187.63;;;24.69
76381;BMP280;65202;52.520;10.528;2023-06-14T13:08:41;101182.53;;;24.66
76381;BMP280;65202;52.520;10.528;2023-06-14T13:11:09;101176.53;;;24.71
76381;BMP280;65202;52.520;10.528;2023-06-14T13:13:36;101177.22;;;24.92
76381;BMP280;65202;52.520;10.528;2023-06-14T13:16:03;101170.66;;;24.57
76381;BMP280;65202;52.520;10.528;2023-06-14T13:18:30;101166.81;;;25.19
76381;BMP280;65202;52.520;10.528;2023-06-14T13:20:58;101168.41;;;25.32
76381;BMP280;65202;52.520;10.528;2023-06-14T13:23:25;101183.19;;;24.96
76381;BMP280;65202;52.520;10.528;2023-06-14T13:25:52;101174.78;;;24.80
76381;BMP280;65202;52.520;10.528;2023-06-14T13:28:20;101168.75;;;24.89
76381;BMP280;65202;52.520;10.528;2023-06-14T13:30:48;101169.66;;;24.80
76381;BMP280;65202;52.520;10.528;2023-06-14T13:33:15;101166.38;;;24.59
76381;BMP280;65202;52.520;10.528;2023-06-14T13:35:42;101175.03;;;24.30
76381;BMP280;65202;52.520;10.528;2023-06-14T13:38:09;101171.50;;;24.58
76381;BMP280;65202;52.520;10.528;2023-06-14T13:40:38;101169.84;;;24.49
76381;BMP280;65202;52.520;10.528;2023-06-14T13:43:06;101169.84;;;24.51
76381;BMP280;65202;52.520;10.528;2023-06-14T13:45:34;101162.53;;;25.20
76381;BMP280;65202;52.520;10.528;2023-06-14T13:48:02;101159.53;;;25.64
76381;BMP280;65202;52.520;10.528;2023-06-14T13:50:29;101155.69;;;25.19
76381;BMP280;65202;52.520;10.528;2023-06-14T13:52:57;101155.19;;;24.71
76381;BMP280;65202;52.520;10.528;2023-06-14T13:55:24;101169.88;;;24.42
76381;BMP280;65202;52.520;10.528;2023-06-14T13:57:51;101158.63;;;24.70
76381;BMP280;65202;52.520;10.528;2023-06-14T14:00:19;101161.44;;;24.19
76381;BMP280;65202;52.520;10.528;2023-06-14T14:02:49;101156.19;;;24.52
76381;BMP280;65202;52.520;10.528;2023-06-14T14:05:17;101155.41;;;24.36
76381;BMP280;65202;52.520;10.528;2023-06-14T14:07:45;101154.63;;;24.16
76381;BMP280;65202;52.520;10.528;2023-06-14T14:10:12;101152.19;;;23.88